createdAt,value
2019-06-01T00:00:42.238Z,99.90
2019-06-01T00:03:10.851Z,99.90
2019-06-01T00:05:40.505Z,99.90
2019-06-01T00:08:09.162Z,99.90
2019-06-01T00:10:38.940Z,99.90
2019-06-01T00:13:08.238Z,99.90
2019-06-01T00:15:36.864Z,99.90
2019-06-01T00:18:05.501Z,99.90
2019-06-01T00:20:34.125Z,99.90
2019-06-01T00:23:02.968Z,99.90
2019-06-01T00:25:32.543Z,99.90
2019-06-01T00:28:01.153Z,99.90
2019-06-01T00:30:29.894Z,99.90
2019-06-01T00:32:58.631Z,99.90
2019-06-01T00:35:27.250Z,99.90
2019-06-01T00:37:56.055Z,99.90
2019-06-01T00:40:24.554Z,99.90
2019-06-01T00:42:53.152Z,99.90
2019-06-01T00:45:22.133Z,99.90
2019-06-01T00:47:50.905Z,99.90
2019-06-01T00:50:20.230Z,99.90
2019-06-01T00:52:49.311Z,99.90
2019-06-01T00:55:18.097Z,99.90
2019-06-01T00:57:47.561Z,99.90
2019-06-01T01:00:16.624Z,99.90
2019-06-01T01:02:45.929Z,99.90
2019-06-01T01:05:17.462Z,99.90
2019-06-01T01:07:46.630Z,99.90
2019-06-01T01:10:15.864Z,99.90
2019-06-01T01:13:04.441Z,99.90
2019-06-01T01:15:33.781Z,99.90
2019-06-01T01:18:02.467Z,99.90
2019-06-01T01:20:30.974Z,99.90
2019-06-01T01:22:59.544Z,99.90
2019-06-01T01:25:28.150Z,99.90
2019-06-01T01:27:57.019Z,99.90
2019-06-01T01:30:25.972Z,99.90
2019-06-01T01:32:55.787Z,99.90
2019-06-01T01:35:24.754Z,99.90
2019-06-01T01:37:58.541Z,99.90
2019-06-01T01:40:28.628Z,99.90
2019-06-01T01:42:58.773Z,99.90
2019-06-01T01:45:27.724Z,99.90
2019-06-01T01:47:57.164Z,99.90
2019-06-01T01:50:27.540Z,99.90
2019-06-01T01:52:57.005Z,99.90
2019-06-01T01:55:26.181Z,99.90
2019-06-01T01:57:55.372Z,99.90
2019-06-01T02:00:33.561Z,99.90
2019-06-01T02:03:02.374Z,99.90
2019-06-01T02:05:31.083Z,99.90
2019-06-01T02:08:00.443Z,99.90
2019-06-01T02:10:30.135Z,99.90
2019-06-01T02:12:59.637Z,99.90
2019-06-01T02:15:28.408Z,99.90
2019-06-01T02:17:58.127Z,99.90
2019-06-01T02:20:27.046Z,99.90
2019-06-01T02:22:56.772Z,99.90
2019-06-01T02:25:25.450Z,99.90
2019-06-01T02:27:55.042Z,99.90
2019-06-01T02:30:23.957Z,99.90
2019-06-01T02:32:53.849Z,99.90
2019-06-01T02:35:22.620Z,99.90
2019-06-01T02:37:51.286Z,99.90
2019-06-01T02:40:20.491Z,99.90
2019-06-01T02:42:49.615Z,99.90
2019-06-01T02:45:19.661Z,99.90
2019-06-01T02:47:48.347Z,99.90
2019-06-01T02:50:17.058Z,99.90
2019-06-01T02:52:45.953Z,99.90
2019-06-01T02:55:17.967Z,99.90
2019-06-01T02:57:46.780Z,99.90
2019-06-01T03:00:17.057Z,99.90
2019-06-01T03:02:46.211Z,99.90
2019-06-01T03:05:14.829Z,99.90
2019-06-01T03:07:44.211Z,99.90
2019-06-01T03:10:12.859Z,99.90
2019-06-01T03:12:45.199Z,99.90
2019-06-01T03:15:15.967Z,99.90
2019-06-01T03:17:48.201Z,99.90
2019-06-01T03:20:18.613Z,99.90
2019-06-01T03:22:50.231Z,99.90
2019-06-01T03:25:18.911Z,99.90
2019-06-01T03:27:49.920Z,99.90
2019-06-01T03:30:21.593Z,99.90
2019-06-01T03:32:50.246Z,99.90
2019-06-01T03:35:18.882Z,99.90
2019-06-01T03:37:47.717Z,99.90
2019-06-01T03:40:23.841Z,99.90
2019-06-01T03:42:46.935Z,99.90
2019-06-01T03:45:15.786Z,99.90
2019-06-01T03:47:44.562Z,99.90
2019-06-01T03:50:13.347Z,99.90
2019-06-01T03:52:41.910Z,99.90
2019-06-01T03:55:10.523Z,99.90
2019-06-01T03:57:39.204Z,99.90
2019-06-01T04:00:09.401Z,99.90
2019-06-01T04:02:37.974Z,99.90
2019-06-01T04:05:07.451Z,99.90
2019-06-01T04:07:38.797Z,99.90
2019-06-01T04:10:07.985Z,99.90
2019-06-01T04:12:36.691Z,99.90
2019-06-01T04:15:11.555Z,99.90
2019-06-01T04:17:38.794Z,99.90
2019-06-01T04:20:08.171Z,99.90
2019-06-01T04:22:37.221Z,99.90
2019-06-01T04:25:08.196Z,99.90
2019-06-01T04:27:36.971Z,99.90
2019-06-01T04:30:07.542Z,99.90
2019-06-01T04:32:48.936Z,99.90
2019-06-01T04:35:07.372Z,99.90
2019-06-01T04:37:36.099Z,99.90
2019-06-01T04:40:07.345Z,99.90
2019-06-01T04:42:36.614Z,99.90
2019-06-01T04:45:08.914Z,99.90
2019-06-01T04:47:37.359Z,99.90
2019-06-01T04:50:06.754Z,99.90
2019-06-01T04:52:35.476Z,99.90
2019-06-01T04:55:07.318Z,99.90
2019-06-01T04:57:36.026Z,99.90
2019-06-01T05:00:19.809Z,99.90
2019-06-01T05:02:38.252Z,99.90
2019-06-01T05:05:09.316Z,99.90
2019-06-01T05:07:38.097Z,99.90
2019-06-01T05:10:09.289Z,99.90
2019-06-01T05:12:38.007Z,99.90
2019-06-01T05:15:11.925Z,99.90
2019-06-01T05:17:40.486Z,99.90
2019-06-01T05:20:10.440Z,99.90
2019-06-01T05:22:39.066Z,99.90
2019-06-01T05:25:09.040Z,99.90
2019-06-01T05:27:37.790Z,99.90
2019-06-01T05:30:09.478Z,99.90
2019-06-01T05:32:38.286Z,99.90
2019-06-01T05:35:07.729Z,99.90
2019-06-01T05:37:36.513Z,99.90
2019-06-01T05:40:10.514Z,99.90
2019-06-01T05:42:39.235Z,99.90
2019-06-01T05:45:09.238Z,99.90
2019-06-01T05:47:38.257Z,99.90
2019-06-01T05:50:08.482Z,99.90
2019-06-01T05:52:37.434Z,99.90
2019-06-01T05:55:07.792Z,99.90
2019-06-01T05:57:36.389Z,99.90
2019-06-01T06:00:08.978Z,99.90
2019-06-01T06:02:38.543Z,99.90
2019-06-01T06:05:08.248Z,99.90
2019-06-01T06:07:38.376Z,99.90
2019-06-01T06:10:07.544Z,99.90
2019-06-01T06:12:36.134Z,99.90
2019-06-01T06:15:06.748Z,99.80
2019-06-01T06:17:35.299Z,99.40
2019-06-01T06:20:07.501Z,98.80
2019-06-01T06:22:36.011Z,99.00
2019-06-01T06:25:05.741Z,99.10
2019-06-01T06:27:34.377Z,99.70
2019-06-01T06:30:04.820Z,99.60
2019-06-01T06:32:33.420Z,99.80
2019-06-01T06:35:01.997Z,99.70
2019-06-01T06:37:30.538Z,99.80
2019-06-01T06:39:59.078Z,98.80
2019-06-01T06:42:27.651Z,98.10
2019-06-01T06:44:56.234Z,98.10
2019-06-01T06:47:25.190Z,98.00
2019-06-01T06:49:53.762Z,97.40
2019-06-01T06:52:23.513Z,97.30
2019-06-01T06:54:52.314Z,97.30
2019-06-01T06:57:22.036Z,97.00
2019-06-01T06:59:50.777Z,96.20
2019-06-01T07:02:19.384Z,96.50
2019-06-01T07:04:47.882Z,96.10
2019-06-01T07:07:17.532Z,95.80
2019-06-01T07:09:46.221Z,96.00
2019-06-01T07:12:14.808Z,95.90
2019-06-01T07:14:43.401Z,96.00
2019-06-01T07:17:15.554Z,95.80
2019-06-01T07:19:42.523Z,95.80
2019-06-01T07:22:11.113Z,95.60
2019-06-01T07:24:39.640Z,95.40
2019-06-01T07:27:08.184Z,95.50
2019-06-01T07:29:36.886Z,94.20
2019-06-01T07:32:05.751Z,94.20
2019-06-01T07:34:41.877Z,94.20
2019-06-01T07:37:04.691Z,94.20
2019-06-01T07:39:33.489Z,93.80
2019-06-01T07:42:02.298Z,94.10
2019-06-01T07:44:30.886Z,94.00
2019-06-01T07:46:59.487Z,93.60
2019-06-01T07:49:29.136Z,93.80
2019-06-01T07:51:57.906Z,94.00
2019-06-01T07:54:28.531Z,93.50
2019-06-01T07:56:57.190Z,93.80
2019-06-01T07:59:26.402Z,93.40
2019-06-01T08:01:55.365Z,93.70
2019-06-01T08:04:24.699Z,93.90
2019-06-01T08:06:54.183Z,93.40
2019-06-01T08:09:24.515Z,93.50
2019-06-01T08:11:53.077Z,93.40
2019-06-01T08:14:22.522Z,93.00
2019-06-01T08:16:51.145Z,92.80
2019-06-01T08:19:19.708Z,92.70
2019-06-01T08:21:48.371Z,92.60
2019-06-01T08:24:36.306Z,92.90
2019-06-01T08:27:05.007Z,92.50
2019-06-01T08:29:33.700Z,92.30
2019-06-01T08:32:02.334Z,92.70
2019-06-01T08:34:31.128Z,92.20
2019-06-01T08:37:02.517Z,91.60
2019-06-01T08:39:31.464Z,91.50
2019-06-01T08:42:00.142Z,92.30
2019-06-01T08:44:29.598Z,91.80
2019-06-01T08:46:58.350Z,91.30
2019-06-01T08:49:27.984Z,91.40
2019-06-01T08:51:56.919Z,91.50
2019-06-01T08:54:25.973Z,91.50
2019-06-01T08:56:54.602Z,91.40
2019-06-01T08:59:24.224Z,91.70
2019-06-01T09:01:52.894Z,91.20
2019-06-01T09:04:21.456Z,91.20
2019-06-01T09:06:50.043Z,90.80
2019-06-01T09:09:18.642Z,90.70
2019-06-01T09:11:47.246Z,90.70
2019-06-01T09:14:15.911Z,91.10
2019-06-01T09:16:44.774Z,90.50
2019-06-01T09:19:13.630Z,90.80
2019-06-01T09:21:42.239Z,90.70
2019-06-01T09:24:10.833Z,90.00
2019-06-01T09:26:39.378Z,89.70
2019-06-01T09:29:07.942Z,90.50
2019-06-01T09:31:36.785Z,90.50
2019-06-01T09:34:05.612Z,88.10
2019-06-01T09:36:34.539Z,88.40
2019-06-01T09:39:03.734Z,89.90
2019-06-01T09:41:32.617Z,89.10
2019-06-01T09:44:01.400Z,90.20
2019-06-01T09:46:31.839Z,90.30
2019-06-01T09:49:00.171Z,89.10
2019-06-01T09:51:29.482Z,89.40
2019-06-01T09:53:58.267Z,90.10
2019-06-01T09:56:29.057Z,90.10
2019-06-01T09:58:57.427Z,89.00
2019-06-01T10:01:26.109Z,87.60
2019-06-01T10:03:55.078Z,88.90
2019-06-01T10:06:23.803Z,87.20
2019-06-01T10:08:52.536Z,86.20
2019-06-01T10:11:21.163Z,85.80
2019-06-01T10:13:49.858Z,84.00
2019-06-01T10:16:18.621Z,86.30
2019-06-01T10:18:47.182Z,85.90
2019-06-01T10:21:16.235Z,84.30
2019-06-01T10:23:49.118Z,83.70
2019-06-01T10:26:15.270Z,82.80
2019-06-01T10:28:43.995Z,83.00
2019-06-01T10:31:12.698Z,84.40
2019-06-01T10:33:41.499Z,84.20
2019-06-01T10:36:20.402Z,84.10
2019-06-01T10:38:41.481Z,83.70
2019-06-01T10:41:10.170Z,81.30
2019-06-01T10:43:39.734Z,82.90
2019-06-01T10:46:08.628Z,83.10
2019-06-01T10:48:38.098Z,83.30
2019-06-01T10:51:06.906Z,83.60
2019-06-01T10:53:36.350Z,82.60
2019-06-01T10:56:05.248Z,82.00
2019-06-01T10:58:34.669Z,82.10
2019-06-01T11:01:04.438Z,83.20
2019-06-01T11:03:33.137Z,83.20
2019-06-01T11:06:01.785Z,81.90
2019-06-01T11:08:30.501Z,80.50
2019-06-01T11:10:59.107Z,80.30
2019-06-01T11:13:27.757Z,79.00
2019-06-01T11:15:56.461Z,79.70
2019-06-01T11:18:25.135Z,80.10
2019-06-01T11:20:53.850Z,79.30
2019-06-01T11:23:22.431Z,81.10
2019-06-01T11:25:51.207Z,78.80
2019-06-01T11:28:20.206Z,78.90
2019-06-01T11:30:48.766Z,79.60
2019-06-01T11:33:17.576Z,78.50
2019-06-01T11:35:46.183Z,78.00
2019-06-01T11:38:14.698Z,77.80
2019-06-01T11:40:44.800Z,78.40
2019-06-01T11:43:13.714Z,79.50
2019-06-01T11:45:42.925Z,79.30
2019-06-01T11:48:12.765Z,78.30
2019-06-01T11:50:41.498Z,78.40
2019-06-01T11:53:10.166Z,78.60
2019-06-01T11:55:39.234Z,77.60
2019-06-01T11:58:07.935Z,76.40
2019-06-01T12:00:37.528Z,77.70
2019-06-01T12:03:06.453Z,75.90
2019-06-01T12:05:35.765Z,76.80
2019-06-01T12:08:05.019Z,77.60
2019-06-01T12:10:33.749Z,77.40
2019-06-01T12:13:02.474Z,75.00
2019-06-01T12:15:31.120Z,75.60
2019-06-01T12:17:59.825Z,77.90
2019-06-01T12:20:28.608Z,78.00
2019-06-01T12:22:57.165Z,75.90
2019-06-01T12:25:26.009Z,76.80
2019-06-01T12:27:54.710Z,74.20
2019-06-01T12:30:23.549Z,74.20
2019-06-01T12:32:52.292Z,74.20
2019-06-01T12:35:21.123Z,75.30
2019-06-01T12:38:05.520Z,74.50
2019-06-01T12:40:20.137Z,72.40
2019-06-01T12:42:48.702Z,74.70
2019-06-01T12:45:22.472Z,74.80
2019-06-01T12:47:53.607Z,74.70
2019-06-01T12:50:18.879Z,74.40
2019-06-01T12:52:48.614Z,74.20
2019-06-01T12:55:17.613Z,74.40
2019-06-01T12:57:47.049Z,74.40
2019-06-01T13:00:16.142Z,72.00
2019-06-01T13:02:56.332Z,71.80
2019-06-01T13:05:17.746Z,72.80
2019-06-01T13:07:57.767Z,73.50
2019-06-01T13:10:17.033Z,72.90
2019-06-01T13:12:45.817Z,73.40
2019-06-01T13:15:14.882Z,73.80
2019-06-01T13:17:43.586Z,73.00
2019-06-01T13:20:12.341Z,73.30
2019-06-01T13:22:41.282Z,72.30
2019-06-01T13:25:10.156Z,73.50
2019-06-01T13:27:40.877Z,71.30
2019-06-01T13:30:09.578Z,72.90
2019-06-01T13:32:38.942Z,73.80
2019-06-01T13:35:09.157Z,73.20
2019-06-01T13:37:37.777Z,72.60
2019-06-01T13:40:07.484Z,72.70
2019-06-01T13:42:36.208Z,72.30
2019-06-01T13:45:06.879Z,72.50
2019-06-01T13:47:35.594Z,72.30
2019-06-01T13:50:09.014Z,72.50
2019-06-01T13:52:37.632Z,71.40
2019-06-01T13:55:07.437Z,70.90
2019-06-01T13:57:39.401Z,70.80
2019-06-01T14:00:07.878Z,71.00
2019-06-01T14:02:40.131Z,71.40
2019-06-01T14:05:09.425Z,71.00
2019-06-01T14:07:38.275Z,72.00
2019-06-01T14:10:07.657Z,70.50
2019-06-01T14:12:36.429Z,70.60
2019-06-01T14:15:07.849Z,70.30
2019-06-01T14:17:36.543Z,70.70
2019-06-01T14:20:07.363Z,69.60
2019-06-01T14:22:35.904Z,69.50
2019-06-01T14:25:13.505Z,70.20
2019-06-01T14:27:37.668Z,69.50
2019-06-01T14:30:07.700Z,70.20
2019-06-01T14:32:36.328Z,69.10
2019-06-01T14:35:06.739Z,68.90
2019-06-01T14:37:35.336Z,68.60
2019-06-01T14:40:05.910Z,69.10
2019-06-01T14:42:34.399Z,68.70
2019-06-01T14:45:03.063Z,67.70
2019-06-01T14:47:31.663Z,67.20
2019-06-01T14:50:00.217Z,69.40
2019-06-01T14:52:28.924Z,68.40
2019-06-01T14:54:58.042Z,67.90
2019-06-01T14:57:26.697Z,68.20
2019-06-01T14:59:56.127Z,67.60
2019-06-01T15:02:24.759Z,67.30
2019-06-01T15:04:54.312Z,68.60
2019-06-01T15:07:23.006Z,67.90
2019-06-01T15:09:52.266Z,66.80
2019-06-01T15:12:20.948Z,67.70
2019-06-01T15:14:50.795Z,67.70
2019-06-01T15:17:19.498Z,67.00
2019-06-01T15:19:48.076Z,68.30
2019-06-01T15:22:17.088Z,66.90
2019-06-01T15:24:45.611Z,66.50
2019-06-01T15:27:14.115Z,67.30
2019-06-01T15:29:42.711Z,66.40
2019-06-01T15:32:11.370Z,67.10
2019-06-01T15:34:39.967Z,67.30
2019-06-01T15:37:08.529Z,66.80
2019-06-01T15:39:37.115Z,67.80
2019-06-01T15:42:05.707Z,67.30
2019-06-01T15:44:34.266Z,67.80
2019-06-01T15:47:02.849Z,68.50
2019-06-01T15:49:31.475Z,68.30
2019-06-01T15:52:00.124Z,68.60
2019-06-01T15:54:28.593Z,68.70
2019-06-01T15:56:58.366Z,68.00
2019-06-01T15:59:27.090Z,68.00
2019-06-01T16:01:57.148Z,66.00
2019-06-01T16:04:25.934Z,64.90
2019-06-01T16:06:55.006Z,65.00
2019-06-01T16:09:41.330Z,66.10
2019-06-01T16:11:55.410Z,66.90
2019-06-01T16:14:24.104Z,68.30
2019-06-01T16:16:53.812Z,66.90
2019-06-01T16:19:22.562Z,68.20
2019-06-01T16:21:51.129Z,66.90
2019-06-01T16:24:19.718Z,67.10
2019-06-01T16:26:48.264Z,63.50
2019-06-01T16:29:16.868Z,63.20
2019-06-01T16:31:45.383Z,62.80
2019-06-01T16:34:14.041Z,62.20
2019-06-01T16:36:42.617Z,63.70
2019-06-01T16:39:11.201Z,64.50
2019-06-01T16:41:39.829Z,66.60
2019-06-01T16:44:08.424Z,64.90
2019-06-01T16:46:36.933Z,64.60
2019-06-01T16:49:05.834Z,64.80
2019-06-01T16:51:51.804Z,64.50
2019-06-01T16:54:20.518Z,63.70
2019-06-01T16:56:49.251Z,63.60
2019-06-01T16:59:18.054Z,64.50
2019-06-01T17:01:46.669Z,64.00
2019-06-01T17:04:15.244Z,63.70
2019-06-01T17:06:45.403Z,63.90
2019-06-01T17:09:14.227Z,64.90
2019-06-01T17:11:42.892Z,64.70
2019-06-01T17:14:11.587Z,65.50
2019-06-01T17:16:40.245Z,65.10
2019-06-01T17:19:08.930Z,64.60
2019-06-01T17:21:37.567Z,64.80
2019-06-01T17:24:06.334Z,65.90
2019-06-01T17:26:34.886Z,64.20
2019-06-01T17:29:04.132Z,65.10
2019-06-01T17:31:33.376Z,65.40
2019-06-01T17:34:02.538Z,65.30
2019-06-01T17:36:31.255Z,66.40
2019-06-01T17:39:00.122Z,65.30
2019-06-01T17:41:28.745Z,65.00
2019-06-01T17:43:57.371Z,65.20
2019-06-01T17:46:26.038Z,65.60
2019-06-01T17:48:54.846Z,66.00
2019-06-01T17:51:23.593Z,66.80
2019-06-01T17:53:53.420Z,65.50
2019-06-01T17:56:22.439Z,66.30
2019-06-01T17:58:51.064Z,67.60
2019-06-01T18:01:20.199Z,67.60
2019-06-01T18:03:48.795Z,68.20
2019-06-01T18:06:17.385Z,68.30
2019-06-01T18:08:46.004Z,68.80
2019-06-01T18:11:14.595Z,68.20
2019-06-01T18:13:43.148Z,68.50
2019-06-01T18:16:13.024Z,68.70
2019-06-01T18:18:41.857Z,69.50
2019-06-01T18:21:10.626Z,71.00
2019-06-01T18:23:39.166Z,70.20
2019-06-01T18:26:09.105Z,70.00
2019-06-01T18:28:37.873Z,70.90
2019-06-01T18:31:06.797Z,69.40
2019-06-01T18:33:35.536Z,69.70
2019-06-01T18:36:05.188Z,70.10
2019-06-01T18:38:34.230Z,69.00
2019-06-01T18:41:12.920Z,69.90
2019-06-01T18:43:33.106Z,71.00
2019-06-01T18:46:01.813Z,70.80
2019-06-01T18:48:30.466Z,71.70
2019-06-01T18:50:59.093Z,71.60
2019-06-01T18:53:27.740Z,71.30
2019-06-01T18:55:56.432Z,71.50
2019-06-01T18:58:25.529Z,72.20
2019-06-01T19:00:54.216Z,72.20
2019-06-01T19:03:22.771Z,73.00
2019-06-01T19:05:51.528Z,72.90
2019-06-01T19:08:20.088Z,73.50
2019-06-01T19:10:49.296Z,74.20
2019-06-01T19:13:18.494Z,74.50
2019-06-01T19:15:47.082Z,75.50
2019-06-01T19:18:16.974Z,75.70
2019-06-01T19:20:45.905Z,75.90
2019-06-01T19:23:14.897Z,76.90
2019-06-01T19:25:43.501Z,77.00
2019-06-01T19:28:13.242Z,80.80
2019-06-01T19:30:43.039Z,83.60
2019-06-01T19:33:15.156Z,84.20
2019-06-01T19:35:41.983Z,84.50
2019-06-01T19:38:11.362Z,85.50
2019-06-01T19:40:41.570Z,85.90
2019-06-01T19:43:11.367Z,86.10
2019-06-01T19:45:40.335Z,85.30
2019-06-01T19:48:10.563Z,84.90
2019-06-01T19:50:39.685Z,86.20
2019-06-01T19:53:08.764Z,88.80
2019-06-01T19:55:37.656Z,89.80
2019-06-01T19:58:06.290Z,89.20
2019-06-01T20:00:34.961Z,90.60
2019-06-01T20:03:03.498Z,91.10
2019-06-01T20:05:32.205Z,91.30
2019-06-01T20:08:00.809Z,91.70
2019-06-01T20:10:29.416Z,91.60
2019-06-01T20:12:57.930Z,91.50
2019-06-01T20:15:26.545Z,91.80
2019-06-01T20:17:55.135Z,91.90
2019-06-01T20:20:25.779Z,91.80
2019-06-01T20:22:55.013Z,92.30
2019-06-01T20:25:23.574Z,92.00
2019-06-01T20:27:52.179Z,91.50
2019-06-01T20:30:22.184Z,91.70
2019-06-01T20:32:50.916Z,91.60
2019-06-01T20:35:20.125Z,91.60
2019-06-01T20:37:48.874Z,92.00
2019-06-01T20:40:18.400Z,92.50
2019-06-01T20:42:47.140Z,92.50
2019-06-01T20:45:16.786Z,93.00
2019-06-01T20:47:45.473Z,93.30
2019-06-01T20:50:14.800Z,93.60
2019-06-01T20:52:43.550Z,94.00
2019-06-01T20:55:12.896Z,94.30
2019-06-01T20:57:41.472Z,94.60
2019-06-01T21:00:10.882Z,95.10
2019-06-01T21:02:39.437Z,95.80
2019-06-01T21:05:08.346Z,95.80
2019-06-01T21:07:36.936Z,96.10
2019-06-01T21:10:07.927Z,95.70
2019-06-01T21:12:44.628Z,95.10
2019-06-01T21:15:07.806Z,95.10
2019-06-01T21:17:36.439Z,95.30
2019-06-01T21:20:09.447Z,95.40
2019-06-01T21:22:38.262Z,95.90
2019-06-01T21:25:07.308Z,96.20
2019-06-01T21:27:35.990Z,96.30
2019-06-01T21:30:06.861Z,96.50
2019-06-01T21:32:35.490Z,96.80
2019-06-01T21:35:04.944Z,96.90
2019-06-01T21:37:33.514Z,97.10
2019-06-01T21:40:02.102Z,97.30
2019-06-01T21:42:30.678Z,97.40
2019-06-01T21:44:59.278Z,97.70
2019-06-01T21:47:27.941Z,98.00
2019-06-01T21:49:56.595Z,98.10
2019-06-01T21:52:26.322Z,98.40
2019-06-01T21:54:55.092Z,98.60
2019-06-01T21:57:24.594Z,98.70
2019-06-01T21:59:53.263Z,98.70
2019-06-01T22:02:23.037Z,98.90
2019-06-01T22:04:51.925Z,99.00
2019-06-01T22:07:21.258Z,99.10
2019-06-01T22:09:49.977Z,99.30
2019-06-01T22:12:19.217Z,99.60
2019-06-01T22:14:47.915Z,99.80
2019-06-01T22:17:17.486Z,99.90
2019-06-01T22:19:46.200Z,99.90
2019-06-01T22:22:14.720Z,99.90
2019-06-01T22:24:43.342Z,99.90
2019-06-01T22:27:11.927Z,99.90
2019-06-01T22:29:40.942Z,99.90
2019-06-01T22:32:09.566Z,99.90
2019-06-01T22:34:38.145Z,99.90
2019-06-01T22:37:06.622Z,99.90
2019-06-01T22:39:35.498Z,99.90
2019-06-01T22:42:04.325Z,99.90
2019-06-01T22:44:32.899Z,99.90
2019-06-01T22:47:01.831Z,99.90
2019-06-01T22:49:30.496Z,99.90
2019-06-01T22:51:59.185Z,99.90
2019-06-01T22:54:27.762Z,99.90
2019-06-01T22:56:56.377Z,99.90
2019-06-01T22:59:24.989Z,99.90
2019-06-01T23:01:53.540Z,99.90
2019-06-01T23:04:22.973Z,99.90
2019-06-01T23:06:51.747Z,99.90
2019-06-01T23:09:21.041Z,99.90
2019-06-01T23:11:49.534Z,99.90
2019-06-01T23:14:18.019Z,99.90
2019-06-01T23:16:46.477Z,99.90
2019-06-01T23:19:15.073Z,99.90
2019-06-01T23:21:43.837Z,99.90
2019-06-01T23:24:12.493Z,99.90
2019-06-01T23:26:41.067Z,99.90
2019-06-01T23:29:09.680Z,99.90
2019-06-01T23:31:38.354Z,99.90
2019-06-01T23:34:06.901Z,99.90
2019-06-01T23:36:35.506Z,99.90
2019-06-01T23:39:07.167Z,99.90
2019-06-01T23:41:35.777Z,99.90
2019-06-01T23:44:11.925Z,99.90
2019-06-01T23:46:34.948Z,99.90
2019-06-01T23:49:03.545Z,99.90
2019-06-01T23:51:32.317Z,99.90
2019-06-01T23:54:00.847Z,99.90
2019-06-01T23:56:29.741Z,99.90
2019-06-01T23:58:58.458Z,99.90
